Los Angeles, CA

4:36 PM PST on December 10, 2016 (GMT -0800)
Victoria Ave Elementary | | Change Station

Elev 125 ft 33.95 °N, 118.21 °W | Updated 1 minute ago

Mostly Cloudy
Mostly Cloudy
62.8 °F
Feels Like 62.8 °F
N
2.0
Wind Variable Wind from West
Gusts 5.0 mph

Today
High -- | Low -- °F
--% Chance of Precip.
Yesterday
High -- | Low -- °F
Precip. -- in
Pressure 30.09 in
Visibility 5.0 miles
Clouds Overcast 3700 ft
Dew Point 56 °F
Humidity 79%
Rainfall 0.00 in
Snow Depth Not available.
6:47 AM 4:44 PM
Waxing Gibbous, 87% visible
METAR KCQT 102347Z AUTO 26004KT 5SM HZ OVC037 17/13 A3009 RMK AO2 SLP188 T01720128 10189 20139 56013
Pressure 30.09 in
Visibility 5.0 miles
Clouds Overcast 3700 ft
Dew Point 56 °F
Humidity 79%
Rainfall 0.00 in
Snow Depth Not available.
6:47 AM 4:44 PM
Waxing Gibbous, 87% visible
METAR KCQT 102347Z AUTO 26004KT 5SM HZ OVC037 17/13 A3009 RMK AO2 SLP188 T01720128 10189 20139 56013

10-Day Weather Forecast

Almanac

Astronomy

Dec. 10, 2016 Rise Set
Actual Time
Civil Twilight
Nautical Twilight
Astronomical Twilight
Moon
Length of Visible Light
Length of Day
Tomorrow will be .
, % of the Moon is Illuminated

Today's Extremes

State Highs State Lows

Community

WunderPhotos

Upload Photos

1,956,685 photos uploaded!

WunderBlog® & News

Nearby

Air Quality

  Air Quality AQ Index Pollutant
Not available.

Snow Depth

Station Depth Elevation

Earthquake Activity

City Distance Mag. Time & Date
Minimum magnitude displayed is 2.5.

Coastal Water Temperatures

Place Temperature

Stations

Nearby Weather Stations

Station Location Temp. Windchill Dew Point Humidity Wind Precip. Elev Updated Type
                   

Watches & Warnings

There are currently no watches in effect.